createdAt,value
2023-05-11T11:28:29.796Z,34.34
2023-05-11T11:29:29.641Z,33.24
2023-05-11T11:30:29.682Z,32.71
2023-05-11T11:31:29.439Z,32.37
2023-05-11T11:32:29.914Z,31.97
2023-05-11T11:33:29.115Z,31.58
2023-05-11T11:34:29.025Z,31.31
2023-05-11T11:35:28.809Z,30.98
2023-05-11T11:36:28.660Z,30.81
2023-05-11T11:37:28.484Z,30.61
2023-05-11T11:38:29.461Z,30.42
2023-05-11T11:39:28.168Z,30.26
2023-05-11T11:40:32.118Z,30.12
2023-05-11T11:41:28.822Z,30.06
2023-05-11T11:42:27.671Z,29.91
2023-05-11T11:43:27.469Z,29.78
2023-05-11T11:44:27.295Z,29.75
2023-05-11T11:45:27.133Z,29.62
2023-05-11T11:46:27.097Z,29.57
2023-05-11T11:47:26.891Z,29.58
2023-05-11T11:48:26.608Z,29.67
2023-05-11T11:49:26.427Z,29.75
2023-05-11T11:50:26.227Z,29.74
2023-05-11T11:51:26.049Z,29.81
2023-05-11T11:52:25.913Z,29.82
2023-05-11T11:53:25.689Z,29.87
2023-05-11T11:54:25.540Z,29.87
2023-05-11T11:55:25.392Z,29.87
2023-05-11T11:56:25.168Z,29.90
2023-05-11T11:57:24.995Z,29.79
2023-05-11T11:58:24.834Z,29.79
2023-05-11T11:59:24.657Z,29.85
2023-05-11T12:00:24.469Z,29.80
2023-05-11T12:01:24.283Z,29.71
2023-05-11T12:02:24.137Z,29.78
2023-05-11T12:03:24.032Z,29.48
2023-05-11T12:04:23.951Z,29.53
2023-05-11T12:05:24.024Z,29.49
2023-05-11T12:06:25.837Z,29.55
2023-05-11T12:07:23.236Z,29.66
2023-05-11T12:08:23.022Z,29.70
2023-05-11T12:09:22.903Z,29.69
2023-05-11T12:10:22.702Z,29.63
2023-05-11T12:11:22.491Z,29.63
2023-05-11T12:12:22.325Z,29.56
2023-05-11T12:13:22.135Z,29.43
2023-05-11T12:14:21.956Z,29.48
2023-05-11T12:15:21.759Z,29.49
2023-05-11T12:16:21.664Z,29.45
2023-05-11T12:17:21.462Z,29.41
2023-05-11T12:18:21.259Z,29.41
2023-05-11T12:19:21.035Z,29.44
2023-05-11T12:20:20.887Z,29.41
2023-05-11T12:21:20.679Z,29.37
2023-05-11T12:22:20.487Z,29.41
2023-05-11T12:23:20.324Z,29.37
2023-05-11T12:24:20.142Z,29.32
2023-05-11T12:25:20.064Z,29.33
2023-05-11T12:26:19.768Z,29.35
2023-05-11T12:27:19.584Z,29.37
2023-05-11T12:28:19.426Z,29.35
2023-05-11T12:29:19.227Z,29.35
2023-05-11T12:30:19.065Z,29.38
2023-05-11T12:31:18.936Z,29.37
2023-05-11T12:32:18.712Z,29.27
2023-05-11T12:33:18.619Z,29.28
2023-05-11T12:34:18.329Z,29.25
2023-05-11T12:35:18.352Z,29.33
2023-05-11T12:36:17.977Z,29.36
2023-05-11T12:37:17.800Z,29.23
2023-05-11T12:38:17.615Z,29.30
2023-05-11T12:39:17.423Z,29.35
2023-05-11T12:40:17.243Z,29.38
2023-05-11T12:41:17.048Z,29.34
2023-05-11T12:42:16.855Z,29.26
2023-05-11T12:43:16.681Z,29.40
2023-05-11T12:44:16.518Z,29.41
2023-05-11T12:45:16.573Z,29.37
2023-05-11T12:46:16.200Z,29.32
2023-05-11T12:47:15.949Z,29.36
2023-05-11T12:48:15.808Z,29.46
2023-05-11T12:49:15.571Z,29.43
2023-05-11T12:50:15.395Z,29.46
2023-05-11T12:51:15.201Z,29.50
2023-05-11T12:52:15.016Z,29.39
2023-05-11T12:53:14.840Z,29.47
2023-05-11T12:54:14.660Z,29.42
2023-05-11T12:55:14.464Z,29.50
2023-05-11T12:56:14.280Z,29.39
2023-05-11T12:57:14.092Z,29.42
2023-05-11T12:58:13.956Z,29.43
2023-05-11T12:59:13.729Z,29.51
2023-05-11T13:00:13.553Z,29.52
2023-05-11T13:01:13.404Z,29.50
2023-05-11T13:02:13.234Z,29.52
2023-05-11T13:03:13.101Z,29.50
2023-05-11T13:04:12.829Z,29.47
2023-05-11T13:05:12.641Z,29.54
2023-05-11T13:06:12.514Z,29.56
2023-05-11T13:07:12.268Z,29.56
2023-05-11T13:08:12.112Z,29.59
2023-05-11T13:09:11.904Z,29.55
2023-05-11T13:10:11.734Z,29.66
2023-05-11T13:11:11.608Z,29.62
2023-05-11T13:12:11.496Z,29.62
2023-05-11T13:13:11.385Z,29.56
2023-05-11T13:14:11.255Z,29.67
2023-05-11T13:15:11.105Z,29.71
2023-05-11T13:16:10.977Z,29.63
2023-05-11T13:17:10.834Z,29.67
2023-05-11T13:18:10.708Z,29.73
2023-05-11T13:19:10.566Z,29.70
2023-05-11T13:20:10.401Z,29.66
2023-05-11T13:21:10.213Z,29.67
2023-05-11T13:22:10.061Z,29.66
2023-05-11T13:23:09.877Z,29.68
2023-05-11T13:24:09.731Z,29.75
2023-05-11T13:25:09.593Z,29.68
2023-05-11T13:26:09.458Z,29.71
2023-05-11T13:27:09.288Z,29.62
2023-05-11T13:28:09.167Z,29.72
2023-05-11T13:29:11.285Z,29.74
2023-05-11T13:30:09.099Z,29.65
2023-05-11T13:31:09.063Z,29.71
2023-05-11T13:32:08.761Z,29.70
2023-05-11T13:33:08.584Z,29.72
2023-05-11T13:34:08.411Z,29.64
2023-05-11T13:35:08.193Z,29.68
2023-05-11T13:36:07.998Z,29.70
2023-05-11T13:37:07.816Z,29.71
2023-05-11T13:38:07.650Z,29.74
2023-05-11T13:39:07.501Z,29.72
2023-05-11T13:40:07.276Z,29.80
2023-05-11T13:41:07.112Z,29.70
2023-05-11T13:42:06.895Z,29.72
2023-05-11T13:43:06.735Z,29.73
2023-05-11T13:44:06.557Z,29.71
2023-05-11T13:45:06.384Z,29.78
2023-05-11T13:46:06.248Z,29.76
2023-05-11T13:47:06.152Z,29.74
2023-05-11T13:48:06.030Z,29.76
2023-05-11T13:49:05.850Z,29.74
2023-05-11T13:50:05.720Z,29.74
2023-05-11T13:51:05.502Z,29.75
2023-05-11T13:52:05.315Z,29.80
2023-05-11T13:53:05.128Z,29.80
2023-05-11T13:54:04.917Z,29.71
2023-05-11T13:55:04.734Z,29.81
2023-05-11T13:56:04.521Z,29.91
2023-05-11T13:57:04.332Z,29.84
2023-05-11T13:58:04.173Z,29.86
2023-05-11T13:59:03.965Z,29.88
2023-05-11T14:00:03.812Z,29.94
2023-05-11T14:01:07.825Z,29.83
2023-05-11T14:02:03.581Z,29.96
2023-05-11T14:03:03.466Z,29.94
2023-05-11T14:04:03.078Z,29.97
2023-05-11T14:05:02.910Z,29.96
2023-05-11T14:06:02.689Z,29.96
2023-05-11T14:07:02.514Z,29.90
2023-05-11T14:08:02.333Z,29.97
2023-05-11T14:09:02.134Z,30.03
2023-05-11T14:10:01.957Z,30.05
2023-05-11T14:11:01.791Z,30.04
2023-05-11T14:12:01.670Z,30.04
2023-05-11T14:13:01.536Z,30.03
2023-05-11T14:14:01.452Z,30.10
2023-05-11T14:15:01.319Z,30.05
2023-05-11T14:16:01.211Z,30.08
2023-05-11T14:17:01.135Z,30.03
2023-05-11T14:18:00.994Z,30.05
2023-05-11T14:19:01.010Z,30.09
2023-05-11T14:20:00.728Z,30.07
2023-05-11T14:21:00.607Z,30.11
2023-05-11T14:22:00.484Z,30.11
2023-05-11T14:23:00.370Z,30.13
2023-05-11T14:24:11.574Z,30.17
2023-05-11T14:25:01.064Z,30.15
2023-05-11T14:25:59.881Z,30.15
2023-05-11T14:26:59.707Z,30.17
2023-05-11T14:27:59.528Z,30.18
2023-05-11T14:28:59.334Z,30.14
2023-05-11T14:29:59.150Z,30.17
2023-05-11T14:30:59.027Z,30.20
2023-05-11T14:31:58.812Z,30.22
2023-05-11T14:32:58.660Z,30.20
2023-05-11T14:33:58.440Z,30.16
2023-05-11T14:34:58.258Z,30.19
2023-05-11T14:35:58.067Z,30.23
2023-05-11T14:36:57.902Z,30.23
2023-05-11T14:37:57.730Z,30.23
2023-05-11T14:38:57.577Z,30.23
2023-05-11T14:39:57.450Z,30.27
2023-05-11T14:40:57.308Z,30.25
2023-05-11T14:41:57.187Z,30.23
2023-05-11T14:42:57.154Z,30.23
2023-05-11T14:43:56.976Z,30.28
2023-05-11T14:44:56.837Z,30.25
2023-05-11T14:45:56.755Z,30.25
2023-05-11T14:46:56.603Z,30.35
2023-05-11T14:47:56.589Z,30.28
2023-05-11T14:48:56.387Z,30.31
2023-05-11T14:49:56.269Z,30.29
2023-05-11T14:50:56.160Z,30.23
2023-05-11T14:51:56.040Z,30.26
2023-05-11T14:52:55.938Z,30.32
2023-05-11T14:53:55.800Z,30.28
2023-05-11T14:54:55.708Z,30.29
2023-05-11T14:55:55.576Z,30.27
2023-05-11T14:56:56.288Z,30.29
2023-05-11T14:57:55.353Z,30.31
2023-05-11T14:58:55.162Z,30.28
2023-05-11T14:59:59.622Z,30.28
2023-05-11T15:00:55.810Z,30.28
2023-05-11T15:01:54.687Z,30.32
2023-05-11T15:02:54.453Z,30.38
2023-05-11T15:03:54.292Z,30.35
2023-05-11T15:04:54.052Z,30.30
2023-05-11T15:05:53.895Z,30.31
2023-05-11T15:06:53.697Z,30.36
2023-05-11T15:07:53.516Z,30.35
2023-05-11T15:08:53.404Z,30.41
2023-05-11T15:09:53.272Z,30.42
2023-05-11T15:10:53.158Z,30.37
2023-05-11T15:11:53.043Z,30.37
2023-05-11T15:12:52.920Z,30.40
2023-05-11T15:13:52.813Z,30.38
2023-05-11T15:14:52.685Z,30.45
2023-05-11T15:15:52.586Z,30.42
2023-05-11T15:16:52.440Z,30.48
2023-05-11T15:17:52.369Z,30.42
2023-05-11T15:18:52.221Z,30.45
2023-05-11T15:19:52.084Z,30.50
2023-05-11T15:20:51.976Z,30.49
2023-05-11T15:21:51.866Z,30.54
2023-05-11T15:22:51.744Z,30.56
2023-05-11T15:23:51.627Z,30.52
2023-05-11T15:24:51.491Z,30.51
2023-05-11T15:25:51.376Z,30.52
2023-05-11T15:26:51.261Z,30.55
2023-05-11T15:27:51.140Z,30.59
2023-05-11T15:28:51.026Z,30.55
2023-05-11T15:29:50.876Z,30.62
2023-05-11T15:30:50.740Z,30.55
2023-05-11T15:31:50.678Z,30.57
2023-05-11T15:32:50.523Z,30.61
2023-05-11T15:33:50.404Z,30.64
2023-05-11T15:34:59.084Z,30.62
2023-05-11T15:35:51.070Z,30.66
2023-05-11T15:36:49.980Z,30.64
2023-05-11T15:37:49.702Z,30.66
2023-05-11T15:38:49.522Z,30.70
2023-05-11T15:39:49.347Z,30.65
2023-05-11T15:40:49.168Z,30.69
2023-05-11T15:41:49.001Z,30.66
2023-05-11T15:42:48.815Z,30.66
2023-05-11T15:43:48.639Z,30.67
2023-05-11T15:44:48.514Z,30.72
2023-05-11T15:45:48.437Z,30.75
2023-05-11T15:46:48.757Z,30.86
2023-05-11T15:47:48.193Z,30.78
2023-05-11T15:48:48.030Z,30.75
2023-05-11T15:49:47.892Z,30.75
2023-05-11T15:50:47.765Z,30.75
2023-05-11T15:51:47.652Z,30.76
2023-05-11T15:52:47.542Z,30.79
2023-05-11T15:53:47.409Z,30.83
2023-05-11T15:54:47.308Z,30.79
2023-05-11T15:55:47.154Z,30.80
2023-05-11T15:56:47.062Z,30.79
2023-05-11T15:57:46.890Z,30.79
2023-05-11T15:58:46.705Z,30.82
2023-05-11T15:59:46.494Z,30.80
2023-05-11T16:00:46.314Z,30.89
2023-05-11T16:01:46.170Z,30.86
2023-05-11T16:02:46.066Z,30.91
2023-05-11T16:03:45.747Z,30.90
2023-05-11T16:04:45.547Z,30.97
2023-05-11T16:05:45.529Z,30.94
2023-05-11T16:06:45.315Z,30.94
2023-05-11T16:07:45.192Z,30.98
2023-05-11T16:08:45.082Z,30.94
2023-05-11T16:09:44.952Z,30.93
2023-05-11T16:10:44.827Z,31.05
2023-05-11T16:11:44.715Z,31.01
2023-05-11T16:12:44.585Z,30.97
2023-05-11T16:13:44.478Z,30.98
2023-05-11T16:14:44.344Z,31.05
2023-05-11T16:15:44.206Z,31.07
2023-05-11T16:16:44.033Z,31.07
2023-05-11T16:17:43.841Z,31.07
2023-05-11T16:18:43.681Z,31.10
2023-05-11T16:19:43.444Z,31.05
2023-05-11T16:20:43.278Z,31.15
2023-05-11T16:21:43.078Z,31.13
2023-05-11T16:22:42.910Z,31.13
2023-05-11T16:23:42.711Z,31.15
2023-05-11T16:24:42.579Z,31.12
2023-05-11T16:25:42.462Z,31.12
2023-05-11T16:26:42.353Z,31.13
2023-05-11T16:27:42.232Z,31.15
2023-05-11T16:28:42.114Z,31.16
2023-05-11T16:29:41.984Z,31.16
2023-05-11T16:30:41.882Z,31.22
2023-05-11T16:31:41.823Z,31.22
2023-05-11T16:32:41.669Z,31.26
2023-05-11T16:33:41.563Z,31.25
2023-05-11T16:34:41.454Z,31.20
2023-05-11T16:35:41.308Z,31.23
2023-05-11T16:36:41.193Z,31.23
2023-05-11T16:37:41.098Z,31.30
2023-05-11T16:38:40.980Z,31.22
2023-05-11T16:39:40.848Z,31.29
2023-05-11T16:40:40.742Z,31.26
2023-05-11T16:41:40.631Z,31.20
2023-05-11T16:42:40.534Z,31.23
2023-05-11T16:43:40.417Z,31.30
2023-05-11T16:44:40.307Z,31.29
2023-05-11T16:45:40.197Z,31.29
2023-05-11T16:46:40.185Z,31.29
2023-05-11T16:47:39.960Z,31.29
2023-05-11T16:48:39.834Z,31.32
2023-05-11T16:49:39.703Z,31.30
2023-05-11T16:50:39.576Z,31.33
2023-05-11T16:51:39.468Z,31.30
2023-05-11T16:52:39.332Z,31.34
2023-05-11T16:53:39.243Z,31.34
2023-05-11T16:54:39.115Z,31.30
2023-05-11T16:55:39.006Z,31.43
2023-05-11T16:56:38.900Z,31.40
2023-05-11T16:57:38.780Z,31.38
2023-05-11T16:58:38.679Z,31.44
2023-05-11T16:59:38.562Z,31.38
2023-05-11T17:00:38.455Z,31.37
2023-05-11T17:01:38.381Z,31.37
2023-05-11T17:02:38.348Z,31.41
2023-05-11T17:03:38.208Z,31.42
2023-05-11T17:04:38.008Z,31.35
2023-05-11T17:05:37.888Z,31.34
2023-05-11T17:06:37.771Z,31.44
2023-05-11T17:07:37.600Z,31.44
2023-05-11T17:08:37.441Z,31.38
2023-05-11T17:09:37.233Z,31.37
2023-05-11T17:10:37.055Z,31.44
2023-05-11T17:11:36.896Z,31.48
2023-05-11T17:12:36.718Z,31.45
2023-05-11T17:13:36.525Z,31.44
2023-05-11T17:14:36.352Z,31.41
2023-05-11T17:15:36.176Z,31.44
2023-05-11T17:16:36.048Z,31.44
2023-05-11T17:17:35.848Z,31.43
2023-05-11T17:18:35.670Z,31.42
2023-05-11T17:19:35.455Z,31.44
2023-05-11T17:20:35.276Z,31.43
2023-05-11T17:21:35.100Z,31.46
2023-05-11T17:22:34.939Z,31.43
2023-05-11T17:23:34.750Z,31.49
2023-05-11T17:24:34.604Z,31.53
2023-05-11T17:25:34.387Z,31.45
2023-05-11T17:26:46.484Z,31.52
2023-05-11T17:27:35.053Z,31.46
2023-05-11T17:28:33.885Z,31.47
2023-05-11T17:29:33.717Z,31.55
2023-05-11T17:30:47.507Z,31.46
2023-05-11T17:31:34.593Z,31.52
2023-05-11T17:32:33.378Z,31.49
2023-05-11T17:33:33.040Z,31.53
2023-05-11T17:34:32.927Z,31.56
2023-05-11T17:35:32.660Z,31.50
2023-05-11T17:36:32.474Z,31.51
2023-05-11T17:37:32.721Z,31.53
2023-05-11T17:38:32.141Z,31.65
2023-05-11T17:39:31.977Z,31.52
2023-05-11T17:40:31.813Z,31.54
2023-05-11T17:41:31.642Z,31.56
2023-05-11T17:42:31.524Z,31.60
2023-05-11T17:43:31.390Z,31.57
2023-05-11T17:44:31.283Z,31.57
2023-05-11T17:45:31.242Z,31.59
2023-05-11T17:46:31.070Z,31.57
2023-05-11T17:47:30.952Z,31.50
2023-05-11T17:48:30.784Z,31.57
2023-05-11T17:49:30.601Z,31.56
2023-05-11T17:50:30.438Z,31.60
2023-05-11T17:51:30.273Z,31.61
2023-05-11T17:52:30.089Z,31.63
2023-05-11T17:53:29.915Z,31.59
2023-05-11T17:54:29.750Z,31.60
2023-05-11T17:55:29.582Z,31.61
2023-05-11T17:56:29.413Z,31.59
2023-05-11T17:57:29.260Z,31.60
2023-05-11T17:58:29.119Z,31.62
2023-05-11T17:59:28.991Z,31.57
2023-05-11T18:00:28.846Z,31.64
2023-05-11T18:01:28.821Z,31.64
2023-05-11T18:02:28.587Z,31.65
2023-05-11T18:03:28.436Z,31.67
2023-05-11T18:04:28.210Z,31.65
2023-05-11T18:05:40.374Z,31.68
2023-05-11T18:06:28.834Z,31.67
2023-05-11T18:07:27.647Z,31.65
2023-05-11T18:08:27.484Z,31.61
2023-05-11T18:09:27.322Z,31.65
2023-05-11T18:10:27.149Z,31.61
2023-05-11T18:11:26.974Z,31.62
2023-05-11T18:12:26.797Z,31.62
2023-05-11T18:13:26.629Z,31.67
2023-05-11T18:14:26.468Z,31.67
2023-05-11T18:15:26.284Z,31.64
2023-05-11T18:16:26.176Z,31.64
2023-05-11T18:17:25.992Z,31.69
2023-05-11T18:18:25.821Z,31.70
2023-05-11T18:19:25.592Z,31.65
2023-05-11T18:20:25.416Z,31.65
2023-05-11T18:21:25.240Z,31.71
2023-05-11T18:22:25.074Z,31.71
2023-05-11T18:23:24.944Z,31.67
2023-05-11T18:24:24.761Z,31.64
2023-05-11T18:25:24.613Z,31.72
2023-05-11T18:26:24.469Z,31.71
2023-05-11T18:27:24.329Z,31.75
2023-05-11T18:28:24.204Z,31.71
2023-05-11T18:29:24.124Z,31.69
2023-05-11T18:30:23.966Z,31.69
2023-05-11T18:31:23.811Z,31.68
2023-05-11T18:32:23.615Z,31.69
2023-05-11T18:33:23.508Z,31.69
2023-05-11T18:34:23.275Z,31.66
2023-05-11T18:35:23.089Z,31.72
2023-05-11T18:36:22.926Z,31.72
2023-05-11T18:37:22.789Z,31.68
2023-05-11T18:38:22.594Z,31.66
2023-05-11T18:39:22.413Z,31.72
2023-05-11T18:40:22.428Z,31.70
2023-05-11T18:41:22.051Z,31.65
2023-05-11T18:42:21.895Z,31.74
2023-05-11T18:43:21.727Z,31.72
2023-05-11T18:44:21.566Z,31.70
2023-05-11T18:45:21.378Z,31.69
2023-05-11T18:46:21.241Z,31.71
2023-05-11T18:47:21.031Z,31.76
2023-05-11T18:48:20.853Z,31.76
2023-05-11T18:49:20.690Z,31.67
2023-05-11T18:50:20.743Z,31.73
2023-05-11T18:51:20.349Z,31.70
2023-05-11T18:52:20.183Z,31.73
2023-05-11T18:53:19.990Z,31.72
2023-05-11T18:54:19.827Z,31.76
2023-05-11T18:55:19.643Z,31.69
2023-05-11T18:56:19.496Z,31.66
2023-05-11T18:57:19.312Z,31.63
2023-05-11T18:58:19.129Z,31.65
2023-05-11T18:59:19.000Z,31.63
2023-05-11T19:00:19.237Z,31.68
2023-05-11T19:01:18.677Z,31.66
2023-05-11T19:02:18.492Z,31.63
2023-05-11T19:03:18.330Z,31.65
2023-05-11T19:04:18.090Z,31.60
2023-05-11T19:05:17.925Z,31.70
2023-05-11T19:06:17.758Z,31.72
2023-05-11T19:07:33.089Z,31.69
2023-05-11T19:08:17.401Z,31.69
2023-05-11T19:09:17.226Z,31.69
2023-05-11T19:10:17.154Z,31.67
2023-05-11T19:11:16.896Z,31.70
2023-05-11T19:12:16.713Z,31.68
2023-05-11T19:13:16.521Z,31.70
2023-05-11T19:14:16.363Z,31.74
2023-05-11T19:15:16.198Z,31.71
2023-05-11T19:16:16.046Z,31.69
2023-05-11T19:17:15.828Z,31.66
2023-05-11T19:18:15.694Z,31.73
2023-05-11T19:19:15.485Z,31.73
2023-05-11T19:20:15.366Z,31.63
2023-05-11T19:21:15.158Z,31.67
2023-05-11T19:22:14.979Z,31.68
2023-05-11T19:23:14.801Z,31.71
2023-05-11T19:24:14.630Z,31.76
2023-05-11T19:25:14.445Z,31.73
2023-05-11T19:26:14.285Z,31.71
2023-05-11T19:27:14.102Z,31.73
2023-05-11T19:28:13.928Z,31.68
2023-05-11T19:29:13.768Z,31.74
2023-05-11T19:30:13.595Z,31.67
2023-05-11T19:31:13.418Z,31.67
2023-05-11T19:32:13.311Z,31.73
2023-05-11T19:33:13.118Z,31.76
2023-05-11T19:34:12.918Z,31.78
2023-05-11T19:35:12.737Z,31.73
2023-05-11T19:36:12.559Z,31.68
2023-05-11T19:37:12.373Z,31.74
2023-05-11T19:38:12.199Z,31.72
2023-05-11T19:39:12.025Z,31.70
2023-05-11T19:40:43.569Z,31.73
2023-05-11T19:41:12.676Z,31.67
2023-05-11T19:42:11.502Z,31.76
2023-05-11T19:43:11.376Z,31.71
2023-05-11T19:44:11.178Z,31.73
2023-05-11T19:45:10.999Z,31.71
2023-05-11T19:46:10.857Z,31.73
2023-05-11T19:47:10.657Z,31.71
2023-05-11T19:48:10.528Z,31.74
2023-05-11T19:49:10.314Z,31.74
2023-05-11T19:50:10.146Z,31.71
2023-05-11T19:51:09.953Z,31.70
2023-05-11T19:52:09.792Z,31.74
2023-05-11T19:53:09.606Z,31.78
2023-05-11T19:54:09.444Z,31.68
2023-05-11T19:55:09.268Z,31.70
2023-05-11T19:56:09.119Z,31.68
2023-05-11T19:57:08.912Z,31.68
2023-05-11T19:58:08.764Z,31.76
2023-05-11T19:59:08.634Z,31.72
2023-05-11T20:00:08.412Z,31.71
2023-05-11T20:01:08.276Z,31.74
2023-05-11T20:02:08.066Z,31.80
2023-05-11T20:03:07.965Z,31.74
2023-05-11T20:04:07.825Z,31.78
2023-05-11T20:05:07.551Z,31.72
2023-05-11T20:06:07.369Z,31.80
2023-05-11T20:07:07.222Z,31.75
2023-05-11T20:08:07.039Z,31.80
2023-05-11T20:09:06.856Z,31.78
2023-05-11T20:10:06.682Z,31.80
2023-05-11T20:11:06.498Z,31.80
2023-05-11T20:12:06.344Z,31.74
2023-05-11T20:13:06.161Z,31.79
2023-05-11T20:14:06.042Z,31.74
2023-05-11T20:15:05.820Z,31.75
2023-05-11T20:16:05.674Z,31.72
2023-05-11T20:17:05.477Z,31.76
2023-05-11T20:18:05.345Z,31.77
2023-05-11T20:19:05.188Z,31.73
2023-05-11T20:20:04.956Z,31.78
2023-05-11T20:21:04.805Z,31.74
2023-05-11T20:22:04.657Z,31.75
2023-05-11T20:23:04.441Z,31.78
2023-05-11T20:24:04.281Z,31.73
2023-05-11T20:25:04.117Z,31.73
2023-05-11T20:26:03.932Z,31.76
2023-05-11T20:27:03.774Z,31.79
2023-05-11T20:28:03.620Z,31.75
2023-05-11T20:29:03.427Z,31.73
2023-05-11T20:30:03.243Z,31.71
2023-05-11T20:31:03.067Z,31.69
2023-05-11T20:32:02.973Z,31.73
2023-05-11T20:35:02.377Z,31.75
2023-05-11T20:36:02.202Z,31.72
2023-05-11T20:37:02.047Z,31.72
2023-05-11T20:38:01.884Z,31.78
2023-05-11T20:39:01.699Z,31.72
2023-05-11T20:40:01.529Z,31.75
2023-05-11T20:41:01.354Z,31.71
2023-05-11T20:42:01.181Z,31.75
2023-05-11T20:43:01.021Z,31.76
2023-05-11T20:44:00.842Z,31.76
2023-05-11T20:45:00.692Z,31.71
2023-05-11T20:46:00.537Z,31.69
2023-05-11T20:47:00.348Z,31.72
2023-05-11T20:48:00.240Z,31.69
2023-05-11T20:49:00.006Z,31.73
2023-05-11T20:49:59.844Z,31.77
2023-05-11T20:50:59.672Z,31.73
2023-05-11T20:51:59.507Z,31.70
2023-05-11T20:52:59.320Z,31.73
2023-05-11T20:53:59.173Z,31.70
2023-05-11T20:54:58.983Z,31.72
2023-05-11T20:55:59.757Z,31.70
2023-05-11T20:56:58.667Z,31.73
2023-05-11T20:57:58.490Z,31.76
2023-05-11T20:58:58.298Z,31.73
2023-05-11T21:00:58.096Z,31.72
2023-05-11T21:01:57.832Z,31.69
2023-05-11T21:02:57.723Z,31.79
2023-05-11T21:03:57.453Z,31.76
2023-05-11T21:04:57.297Z,31.76
2023-05-11T21:05:57.135Z,31.77
2023-05-11T21:06:56.962Z,31.80
2023-05-11T21:07:56.789Z,31.73
2023-05-11T21:08:56.614Z,31.70
2023-05-11T21:09:56.451Z,31.75
2023-05-11T21:10:56.268Z,31.69
2023-05-11T21:11:56.116Z,31.70
2023-05-11T21:12:55.927Z,31.75
2023-05-11T21:13:55.757Z,31.77
2023-05-11T21:14:56.841Z,31.74
2023-05-11T21:15:55.432Z,31.72
2023-05-11T21:16:55.275Z,31.73
2023-05-11T21:17:55.085Z,31.73
2023-05-11T21:18:54.973Z,31.72
2023-05-11T21:19:54.741Z,31.77
2023-05-11T21:20:54.585Z,31.72
2023-05-11T21:21:54.404Z,31.72
2023-05-11T21:22:54.249Z,31.75
2023-05-11T21:23:54.063Z,31.76
2023-05-11T21:24:53.925Z,31.76
2023-05-11T21:25:53.724Z,31.79
2023-05-11T21:26:53.596Z,31.69
2023-05-11T21:27:53.389Z,31.79
2023-05-11T21:28:53.213Z,31.73
2023-05-11T21:29:53.058Z,31.73
2023-05-11T21:30:52.920Z,31.73
2023-05-11T21:31:52.698Z,31.73
2023-05-11T21:32:52.547Z,31.76
2023-05-11T21:33:52.366Z,31.76
2023-05-11T21:34:52.205Z,31.77
2023-05-11T21:35:52.045Z,31.77
2023-05-11T21:36:51.848Z,31.76
2023-05-11T21:37:51.677Z,31.73
2023-05-11T21:38:51.520Z,31.77
2023-05-11T21:39:51.352Z,31.76
2023-05-11T21:40:51.188Z,31.76
2023-05-11T21:41:51.014Z,31.73
2023-05-11T21:42:50.832Z,31.74
2023-05-11T21:43:50.659Z,31.73
2023-05-11T21:44:50.495Z,31.73
2023-05-11T21:45:50.332Z,31.74
2023-05-11T21:46:50.338Z,31.76
2023-05-11T21:47:50.073Z,31.73
2023-05-11T21:48:49.814Z,31.70
2023-05-11T21:49:51.934Z,31.76
2023-05-11T21:50:49.485Z,31.76
2023-05-11T21:51:49.320Z,31.76
2023-05-11T21:52:49.149Z,31.77
2023-05-11T21:53:48.970Z,31.74
2023-05-11T21:54:48.838Z,31.74
2023-05-11T21:55:48.624Z,31.77
2023-05-11T21:56:48.460Z,31.81
2023-05-11T21:57:48.289Z,31.78
2023-05-11T21:58:48.132Z,31.74
2023-05-11T21:59:48.874Z,31.77
2023-05-11T22:00:47.937Z,31.77
2023-05-11T22:01:47.814Z,31.84
2023-05-11T22:02:47.661Z,31.80
2023-05-11T22:03:47.536Z,31.71
2023-05-11T22:04:47.304Z,31.78
2023-05-11T22:05:47.118Z,31.78
2023-05-11T22:06:47.077Z,31.84
2023-05-11T22:07:46.806Z,31.81
2023-05-11T22:08:46.665Z,31.85
2023-05-11T22:09:46.502Z,31.79
2023-05-11T22:10:46.346Z,31.81
2023-05-11T22:11:46.198Z,31.81
2023-05-11T22:12:46.052Z,31.88
2023-05-11T22:13:45.879Z,31.79
2023-05-11T22:14:45.724Z,31.77
2023-05-11T22:15:45.547Z,31.84
2023-05-11T22:16:45.497Z,31.78
2023-05-11T22:17:45.312Z,31.77
2023-05-11T22:18:45.103Z,31.82
2023-05-11T22:19:44.923Z,31.78
2023-05-11T22:20:44.726Z,31.81
2023-05-11T22:21:44.567Z,31.84
2023-05-11T22:22:44.430Z,31.82
2023-05-11T22:23:44.257Z,31.82
2023-05-11T22:24:44.103Z,31.85
2023-05-11T22:25:43.946Z,31.85
2023-05-11T22:26:43.802Z,31.78
2023-05-11T22:27:43.678Z,31.85
2023-05-11T22:28:43.511Z,31.78
2023-05-11T22:29:43.351Z,31.84
2023-05-11T22:30:43.206Z,31.87
2023-05-11T22:31:45.259Z,31.85
2023-05-11T22:32:42.870Z,31.89
2023-05-11T22:33:42.687Z,31.87
2023-05-11T22:34:42.524Z,31.80
2023-05-11T22:35:42.419Z,31.82
2023-05-11T22:36:42.203Z,31.88
2023-05-11T22:37:42.027Z,31.88
2023-05-11T22:38:41.846Z,31.86
2023-05-11T22:39:41.667Z,31.88
2023-05-11T22:40:41.535Z,31.84
2023-05-11T22:41:41.357Z,31.88
2023-05-11T22:42:41.176Z,31.88
2023-05-11T22:43:41.023Z,31.89
2023-05-11T22:44:40.858Z,31.88
2023-05-11T22:45:40.701Z,31.88
2023-05-11T22:46:40.505Z,31.89
2023-05-11T22:47:40.366Z,31.86
2023-05-11T22:48:40.176Z,31.85
2023-05-11T22:49:40.014Z,31.92
2023-05-11T22:50:39.856Z,31.88
2023-05-11T22:51:39.676Z,31.89
2023-05-11T22:52:39.557Z,31.91
2023-05-11T22:53:39.357Z,31.88
2023-05-11T22:54:39.221Z,31.85
2023-05-11T22:55:39.048Z,31.91
2023-05-11T22:56:38.852Z,31.89
2023-05-11T22:57:38.716Z,31.88
2023-05-11T22:58:38.513Z,31.91
2023-05-11T22:59:38.331Z,31.92
2023-05-11T23:00:38.183Z,31.86
2023-05-11T23:01:38.096Z,31.92
2023-05-11T23:02:37.981Z,31.85
2023-05-11T23:03:37.701Z,31.91
2023-05-11T23:04:37.520Z,31.86
2023-05-11T23:05:37.361Z,31.86
2023-05-11T23:06:37.186Z,31.89
2023-05-11T23:07:37.040Z,31.89
2023-05-11T23:08:36.861Z,31.91
2023-05-11T23:09:36.732Z,31.88
2023-05-11T23:10:36.560Z,31.93
2023-05-11T23:11:36.362Z,31.88
2023-05-11T23:12:36.312Z,31.88
2023-05-11T23:13:36.087Z,31.92
2023-05-11T23:14:35.877Z,31.94
2023-05-11T23:15:35.689Z,31.94
2023-05-11T23:16:35.534Z,31.91
2023-05-11T23:17:35.424Z,31.91
2023-05-11T23:18:35.273Z,31.89
2023-05-11T23:19:35.198Z,31.91
2023-05-11T23:20:34.873Z,31.96
2023-05-11T23:21:34.702Z,31.97
2023-05-11T23:22:34.539Z,31.96
2023-05-11T23:23:34.368Z,31.89
2023-05-11T23:24:34.209Z,31.92
2023-05-11T23:25:34.048Z,31.91
2023-05-11T23:26:33.868Z,31.92
2023-05-11T23:27:33.722Z,31.96
2023-05-11T23:28:33.540Z,31.96
2023-05-11T23:29:33.512Z,31.97
2023-05-11T23:30:33.234Z,31.92
2023-05-11T23:31:33.102Z,31.96
2023-05-11T23:32:32.938Z,31.99
2023-05-11T23:33:32.743Z,31.96
2023-05-11T23:34:32.611Z,31.96
2023-05-11T23:35:32.438Z,31.97
2023-05-11T23:36:32.297Z,31.97
2023-05-11T23:37:32.128Z,31.96
2023-05-11T23:38:31.988Z,31.96
2023-05-11T23:39:31.866Z,31.92
2023-05-11T23:40:31.709Z,31.91
2023-05-11T23:41:31.551Z,31.94
2023-05-11T23:42:31.432Z,31.91
2023-05-11T23:43:31.245Z,31.96
2023-05-11T23:44:31.101Z,31.93
2023-05-11T23:45:30.989Z,31.92
2023-05-11T23:46:30.824Z,31.94
2023-05-11T23:47:30.765Z,31.99
2023-05-11T23:48:30.506Z,31.94
2023-05-11T23:49:30.317Z,31.94
2023-05-11T23:50:30.152Z,31.92
2023-05-11T23:51:30.000Z,31.96
2023-05-11T23:52:29.849Z,32.00
2023-05-11T23:53:29.651Z,31.96
2023-05-11T23:54:29.492Z,32.00
2023-05-11T23:55:29.308Z,32.00
2023-05-11T23:56:29.147Z,31.99
2023-05-11T23:57:28.980Z,32.02
2023-05-11T23:58:28.809Z,32.00
2023-05-11T23:59:28.638Z,32.01
